createdAt,value
2022-08-04T00:01:00.387Z,4.11
2022-08-04T00:03:02.098Z,4.11
2022-08-04T00:05:05.446Z,4.11
2022-08-04T00:07:05.238Z,4.11
2022-08-04T00:09:06.963Z,4.11
2022-08-04T00:13:09.361Z,4.11
2022-08-04T00:15:11.207Z,4.11
2022-08-04T00:17:12.379Z,4.1
2022-08-04T00:19:14.008Z,4.11
2022-08-04T00:23:15.957Z,4.1
2022-08-04T00:25:17.223Z,4.1
2022-08-04T00:27:18.822Z,4.1
2022-08-04T00:29:19.931Z,4.1
2022-08-04T00:31:33.088Z,4.1
2022-08-04T00:33:23.176Z,4.1
2022-08-04T00:35:24.949Z,4.11
2022-08-04T00:39:28.514Z,4.1
2022-08-04T00:41:29.482Z,4.1
2022-08-04T00:43:30.554Z,4.1
2022-08-04T00:45:35.815Z,4.1
2022-08-04T00:47:34.249Z,4.1
2022-08-04T00:49:35.198Z,4.1
2022-08-04T00:51:36.306Z,4.1
2022-08-04T00:55:39.665Z,4.1
2022-08-04T00:57:40.726Z,4.1
2022-08-04T00:59:42.039Z,4.1
2022-08-04T01:01:43.682Z,4.1
2022-08-04T01:03:44.691Z,4.1
2022-08-04T01:05:46.021Z,4.1
2022-08-04T01:07:47.724Z,4.1
2022-08-04T01:11:56.347Z,4.1
2022-08-04T01:13:51.303Z,4.1
2022-08-04T01:15:56.475Z,4.1
2022-08-04T01:17:53.510Z,4.1
2022-08-04T01:21:56.862Z,4.1
2022-08-04T01:23:58.469Z,4.1
2022-08-04T01:28:01.112Z,4.1
2022-08-04T01:30:02.058Z,4.1
2022-08-04T01:32:03.731Z,4.1
2022-08-04T01:34:05.051Z,4.1
2022-08-04T01:38:18.067Z,4.09
2022-08-04T01:40:08.967Z,4.09
2022-08-04T01:42:10.107Z,4.09
2022-08-04T01:44:11.068Z,4.09
2022-08-04T01:48:13.886Z,4.09
2022-08-04T01:50:15.473Z,4.1
2022-08-04T01:52:17.143Z,4.09
2022-08-04T01:54:18.280Z,4.09
2022-08-04T01:56:19.841Z,4.09
2022-08-04T01:58:21.020Z,4.09
2022-08-04T02:00:22.025Z,4.09
2022-08-04T02:02:23.600Z,4.09
2022-08-04T02:04:24.474Z,4.09
2022-08-04T02:06:25.997Z,4.09
2022-08-04T02:08:27.647Z,4.09
2022-08-04T02:10:29.083Z,4.09
2022-08-04T02:12:30.711Z,4.09
2022-08-04T02:14:32.227Z,4.09
2022-08-04T02:16:34.023Z,4.09
2022-08-04T02:20:37.027Z,4.09
2022-08-04T02:22:37.954Z,4.09
2022-08-04T02:24:39.710Z,4.09
2022-08-04T02:26:40.740Z,4.08
2022-08-04T02:28:41.989Z,4.09
2022-08-04T02:30:43.349Z,4.09
2022-08-04T02:32:44.434Z,4.08
2022-08-04T02:36:47.183Z,4.08
2022-08-04T02:38:48.321Z,4.08
2022-08-04T02:40:49.371Z,4.09
2022-08-04T02:42:51.232Z,4.09
2022-08-04T02:46:53.917Z,4.08
2022-08-04T02:48:55.498Z,4.08
2022-08-04T02:52:58.879Z,4.08
2022-08-04T02:55:00.141Z,4.08
2022-08-04T02:57:01.962Z,4.09
2022-08-04T02:59:02.921Z,4.08
2022-08-04T03:03:06.109Z,4.08
2022-08-04T03:05:07.510Z,4.08
2022-08-04T03:06:00.485Z,4.08
2022-08-04T03:07:52.825Z,4.08
2022-08-04T03:09:53.709Z,4.08
2022-08-04T03:13:56.558Z,4.08
2022-08-04T03:15:57.623Z,4.08
2022-08-04T03:17:59.387Z,4.08
2022-08-04T03:20:00.540Z,4.08
2022-08-04T03:24:03.408Z,4.08
2022-08-04T03:26:04.607Z,4.08
2022-08-04T03:28:05.587Z,4.08
2022-08-04T03:30:06.777Z,4.08
2022-08-04T03:32:08.046Z,4.08
2022-08-04T03:34:09.677Z,4.08
2022-08-04T03:36:11.564Z,4.08
2022-08-04T03:40:13.894Z,4.08
2022-08-04T03:42:23.020Z,4.08
2022-08-04T03:46:17.929Z,4.08
2022-08-04T03:48:19.286Z,4.08
2022-08-04T03:50:20.988Z,4.08
2022-08-04T03:52:22.298Z,4.08
2022-08-04T03:56:24.344Z,4.08
2022-08-04T03:58:28.498Z,4.07
2022-08-04T04:00:26.360Z,4.07
2022-08-04T04:02:27.801Z,4.08
2022-08-04T04:04:29.027Z,4.07
2022-08-04T04:06:30.628Z,4.07
2022-08-04T04:08:31.824Z,4.07
2022-08-04T04:12:35.178Z,4.07
2022-08-04T04:14:36.089Z,4.07
2022-08-04T04:16:37.146Z,4.08
2022-08-04T04:18:38.550Z,4.07
2022-08-04T04:22:41.012Z,4.07
2022-08-04T04:24:42.169Z,4.07
2022-08-04T04:28:44.618Z,4.07
2022-08-04T04:30:45.230Z,4.07
2022-08-04T04:32:46.881Z,4.07
2022-08-04T04:34:48.751Z,4.07
2022-08-04T04:38:51.458Z,4.07
2022-08-04T04:40:53.283Z,4.07
2022-08-04T04:42:55.052Z,4.07
2022-08-04T04:44:55.938Z,4.07
2022-08-04T04:46:56.876Z,4.07
2022-08-04T04:48:57.801Z,4.07
2022-08-04T04:50:59.035Z,4.07
2022-08-04T04:55:01.370Z,4.07
2022-08-04T04:57:03.020Z,4.07
2022-08-04T04:59:04.182Z,4.06
2022-08-04T05:03:09.270Z,4.06
2022-08-04T05:05:08.701Z,4.07
2022-08-04T05:07:10.052Z,4.07
2022-08-04T05:09:11.543Z,4.07
2022-08-04T05:11:13.264Z,4.07
2022-08-04T05:14:33.731Z,4.07
2022-08-04T05:15:15.465Z,4.07
2022-08-04T05:17:16.707Z,4.08
2022-08-04T05:21:19.444Z,4.08
2022-08-04T05:23:20.886Z,4.08
2022-08-04T05:27:23.904Z,4.08
2022-08-04T05:29:25.476Z,4.08
2022-08-04T05:31:26.789Z,4.08
2022-08-04T05:33:29.044Z,4.08
2022-08-04T05:37:31.204Z,4.09
2022-08-04T05:39:34.540Z,4.1
2022-08-04T05:41:45.090Z,4.1
2022-08-04T05:43:35.419Z,4.1
2022-08-04T05:45:39.372Z,4.11
2022-08-04T05:47:37.566Z,4.11
2022-08-04T05:49:39.354Z,4.11
2022-08-04T05:53:42.344Z,4.12
2022-08-04T05:55:56.733Z,4.12
2022-08-04T05:57:45.307Z,4.13
2022-08-04T05:59:46.978Z,4.14
2022-08-04T06:03:50.079Z,4.14
2022-08-04T06:05:51.342Z,4.14
2022-08-04T06:08:04.704Z,4.14
2022-08-04T06:09:54.449Z,4.15
2022-08-04T06:11:59.282Z,4.15
2022-08-04T06:13:57.448Z,4.16
2022-08-04T06:15:58.628Z,4.16
2022-08-04T06:20:18.643Z,4.16
2022-08-04T06:22:03.106Z,4.16
2022-08-04T06:24:04.737Z,4.17
2022-08-04T06:26:05.530Z,4.17
2022-08-04T06:28:06.533Z,4.17
2022-08-04T06:30:07.668Z,4.17
2022-08-04T06:32:26.448Z,4.17
2022-08-04T06:36:11.651Z,4.18
2022-08-04T06:38:12.623Z,4.18
2022-08-04T06:40:14.045Z,4.18
2022-08-04T06:42:14.971Z,4.18
2022-08-04T06:46:16.946Z,4.18
2022-08-04T06:48:18.611Z,4.19
2022-08-04T06:52:20.878Z,4.19
2022-08-04T06:54:22.304Z,4.19
2022-08-04T06:56:23.102Z,4.19
2022-08-04T06:58:24.624Z,4.19
2022-08-04T07:02:27.400Z,4.2
2022-08-04T07:04:28.708Z,4.19
2022-08-04T07:06:30.384Z,4.19
2022-08-04T07:08:31.209Z,4.2
2022-08-04T07:10:32.056Z,4.19
2022-08-04T07:12:33.109Z,4.2
2022-08-04T07:14:34.255Z,4.19
2022-08-04T07:18:36.647Z,4.2
2022-08-04T07:20:37.959Z,4.2
2022-08-04T07:22:39.112Z,4.2
2022-08-04T07:26:42.052Z,4.2
2022-08-04T07:28:43.020Z,4.2
2022-08-04T07:30:43.892Z,4.2
2022-08-04T07:32:45.447Z,4.2
2022-08-04T07:34:49.709Z,4.2
2022-08-04T07:36:50.189Z,4.2
2022-08-04T07:38:51.164Z,4.2
2022-08-04T07:42:52.191Z,4.2
2022-08-04T07:44:53.868Z,4.2
2022-08-04T07:46:54.739Z,4.19
2022-08-04T07:48:56.065Z,4.19
2022-08-04T07:50:56.912Z,4.19
2022-08-04T07:53:15.542Z,4.19
2022-08-04T07:54:58.876Z,4.19
2022-08-04T07:56:59.973Z,4.19
2022-08-04T08:01:02.651Z,4.19
2022-08-04T08:03:04.107Z,4.19
2022-08-04T08:05:05.164Z,4.19
2022-08-04T08:07:06.665Z,4.19
2022-08-04T08:09:12.730Z,4.19
2022-08-04T08:11:09.034Z,4.18
2022-08-04T08:13:09.874Z,4.19
2022-08-04T08:15:11.051Z,4.19
2022-08-04T08:17:12.461Z,4.19
2022-08-04T08:19:13.550Z,4.18
2022-08-04T08:21:14.834Z,4.18
2022-08-04T08:23:15.825Z,4.19
2022-08-04T08:25:16.555Z,4.18
2022-08-04T08:27:17.460Z,4.19
2022-08-04T08:29:18.890Z,4.19
2022-08-04T08:33:21.005Z,4.19
2022-08-04T08:35:21.794Z,4.18
2022-08-04T08:37:23.724Z,4.18
2022-08-04T08:39:24.782Z,4.18
2022-08-04T08:41:25.485Z,4.18
2022-08-04T08:44:00.742Z,4.18
2022-08-04T08:45:28.122Z,4.18
2022-08-04T08:50:01.449Z,4.18
2022-08-04T08:51:32.605Z,4.18
2022-08-04T08:53:33.396Z,4.18
2022-08-04T08:55:34.747Z,4.18
2022-08-04T08:57:35.973Z,4.18
2022-08-04T08:59:36.893Z,4.18
2022-08-04T09:01:37.987Z,4.18
2022-08-04T09:03:39.059Z,4.17
2022-08-04T09:05:39.792Z,4.18
2022-08-04T09:07:41.191Z,4.18
2022-08-04T09:09:42.839Z,4.17
2022-08-04T09:11:44.511Z,4.18
2022-08-04T09:15:47.450Z,4.18
2022-08-04T09:17:48.209Z,4.18
2022-08-04T09:19:49.261Z,4.17
2022-08-04T09:21:50.731Z,4.17
2022-08-04T09:23:51.997Z,4.17
2022-08-04T09:25:53.703Z,4.17
2022-08-04T09:29:56.891Z,4.17
2022-08-04T09:32:06.609Z,4.17
2022-08-04T09:33:59.675Z,4.17
2022-08-04T09:38:01.545Z,4.17
2022-08-04T09:40:02.908Z,4.17
2022-08-04T09:42:04.499Z,4.17
2022-08-04T09:44:42.432Z,4.17
2022-08-04T09:46:07.655Z,4.17
2022-08-04T09:48:08.653Z,4.17
2022-08-04T09:50:09.991Z,4.17
2022-08-04T09:52:11.706Z,4.17
2022-08-04T09:54:57.096Z,4.17
2022-08-04T09:56:57.719Z,4.17
2022-08-04T09:58:58.645Z,4.17
2022-08-04T10:01:00.321Z,4.17
2022-08-04T10:03:02.055Z,4.17
2022-08-04T10:05:03.039Z,4.17
2022-08-04T10:09:05.246Z,4.17
2022-08-04T10:11:05.994Z,4.17
2022-08-04T10:13:07.381Z,4.17
2022-08-04T10:15:08.691Z,4.17
2022-08-04T10:17:09.769Z,4.17
2022-08-04T10:19:11.315Z,4.17
2022-08-04T10:21:15.361Z,4.17
2022-08-04T10:25:37.891Z,4.17
2022-08-04T10:27:16.124Z,4.17
2022-08-04T10:29:17.061Z,4.17
2022-08-04T10:31:18.414Z,4.17
2022-08-04T10:35:20.789Z,4.16
2022-08-04T10:37:22.503Z,4.16
2022-08-04T10:39:41.834Z,4.16
2022-08-04T10:41:25.680Z,4.16
2022-08-04T10:43:27.120Z,4.17
2022-08-04T10:45:28.003Z,4.16
2022-08-04T10:47:29.155Z,4.16
2022-08-04T10:51:31.863Z,4.16
2022-08-04T10:53:32.704Z,4.16
2022-08-04T10:56:05.965Z,4.16
2022-08-04T10:57:34.899Z,4.16
2022-08-04T10:59:35.614Z,4.16
2022-08-04T11:01:51.341Z,4.16
2022-08-04T11:03:38.565Z,4.16
2022-08-04T11:07:41.296Z,4.16
2022-08-04T11:09:43.003Z,4.16
2022-08-04T11:11:57.329Z,4.16
2022-08-04T11:13:47.016Z,4.16
2022-08-04T11:15:46.210Z,4.16
2022-08-04T11:17:47.703Z,4.16
2022-08-04T11:19:53.000Z,4.16
2022-08-04T11:23:51.490Z,4.16
2022-08-04T11:25:52.661Z,4.16
2022-08-04T11:27:53.369Z,4.16
2022-08-04T11:31:56.034Z,4.16
2022-08-04T11:33:56.839Z,4.16
2022-08-04T11:35:58.188Z,4.16
2022-08-04T11:37:59.795Z,4.15
2022-08-04T11:40:00.753Z,4.16
2022-08-04T11:42:01.880Z,4.16
2022-08-04T11:44:05.757Z,4.16
2022-08-04T11:46:03.636Z,4.16
2022-08-04T11:50:05.898Z,4.16
2022-08-04T11:52:07.513Z,4.16
2022-08-04T11:56:11.345Z,4.16
2022-08-04T11:58:11.256Z,4.15
2022-08-04T12:00:12.251Z,4.15
2022-08-04T12:02:15.726Z,4.15
2022-08-04T12:06:16.371Z,4.15
2022-08-04T12:08:17.265Z,4.15
2022-08-04T12:10:38.244Z,4.15
2022-08-04T12:14:21.570Z,4.16
2022-08-04T12:16:22.423Z,4.15
2022-08-04T12:18:23.344Z,4.15
2022-08-04T12:20:32.338Z,4.15
2022-08-04T12:22:29.859Z,4.15
2022-08-04T12:24:26.871Z,4.15
2022-08-04T12:26:28.212Z,4.15
2022-08-04T12:28:41.565Z,4.15
2022-08-04T12:32:31.895Z,4.15
2022-08-04T12:34:33.334Z,4.15
2022-08-04T12:36:34.384Z,4.15
2022-08-04T12:38:35.510Z,4.15
2022-08-04T12:42:37.774Z,4.14
2022-08-04T12:44:39.086Z,4.15
2022-08-04T12:46:39.539Z,4.15
2022-08-04T12:48:41.052Z,4.15
2022-08-04T12:50:42.752Z,4.14
2022-08-04T12:53:00.808Z,4.14
2022-08-04T12:54:45.151Z,4.14
2022-08-04T12:56:46.023Z,4.15
2022-08-04T12:58:47.146Z,4.14
2022-08-04T13:00:48.676Z,4.14
2022-08-04T13:04:51.226Z,4.14
2022-08-04T13:06:52.168Z,4.14
2022-08-04T13:08:52.975Z,4.14
2022-08-04T13:12:55.530Z,4.14
2022-08-04T13:14:56.430Z,4.14
2022-08-04T13:16:57.481Z,4.14
2022-08-04T13:18:58.252Z,4.14
2022-08-04T13:20:59.399Z,4.14
2022-08-04T13:23:00.794Z,4.14
2022-08-04T13:25:17.929Z,4.14
2022-08-04T13:27:04.102Z,4.14
2022-08-04T13:29:12.988Z,4.14
2022-08-04T13:31:05.665Z,4.14
2022-08-04T13:33:07.007Z,4.14
2022-08-04T13:35:08.495Z,4.14
2022-08-04T13:37:09.528Z,4.14
2022-08-04T13:39:11.153Z,4.14
2022-08-04T13:43:48.372Z,4.14
2022-08-04T13:47:15.852Z,4.14
2022-08-04T13:49:31.179Z,4.14
2022-08-04T13:51:18.747Z,4.16
2022-08-04T13:53:21.962Z,4.16
2022-08-04T13:57:22.814Z,4.17
2022-08-04T13:59:23.853Z,4.17
2022-08-04T14:01:35.451Z,4.17
2022-08-04T14:03:25.969Z,4.17
2022-08-04T14:05:30.305Z,4.18
2022-08-04T14:07:28.822Z,4.18
2022-08-04T14:13:40.841Z,4.18
2022-08-04T14:15:55.211Z,4.19
2022-08-04T14:17:34.757Z,4.19
2022-08-04T14:19:35.877Z,4.19
2022-08-04T14:21:36.769Z,4.19
2022-08-04T14:23:37.984Z,4.19
2022-08-04T14:25:38.789Z,4.19
2022-08-04T14:29:41.253Z,4.19
2022-08-04T14:31:51.152Z,4.19
2022-08-04T14:33:59.796Z,4.19
2022-08-04T14:35:50.093Z,4.19
2022-08-04T14:37:47.443Z,4.19
2022-08-04T14:40:09.024Z,4.19
2022-08-04T14:41:48.770Z,4.19
2022-08-04T14:45:53.940Z,4.19
2022-08-04T14:47:53.301Z,4.2
2022-08-04T14:49:54.071Z,4.2
2022-08-04T14:53:56.158Z,4.2
2022-08-04T14:55:57.439Z,4.2
2022-08-04T14:58:33.444Z,4.2
2022-08-04T15:00:01.806Z,4.2
2022-08-04T15:02:01.723Z,4.2
2022-08-04T15:04:02.049Z,4.2
2022-08-04T15:06:08.101Z,4.19
2022-08-04T15:08:04.960Z,4.19
2022-08-04T15:12:06.634Z,4.19
2022-08-04T15:14:07.388Z,4.19
2022-08-04T15:16:08.581Z,4.19
2022-08-04T15:18:09.559Z,4.18
2022-08-04T15:20:10.682Z,4.19
2022-08-04T15:22:26.876Z,4.19
2022-08-04T15:26:14.473Z,4.18
2022-08-04T15:28:15.482Z,4.19
2022-08-04T15:30:17.126Z,4.19
2022-08-04T15:32:18.755Z,4.19
2022-08-04T15:34:19.797Z,4.19
2022-08-04T15:36:20.719Z,4.18
2022-08-04T15:38:21.673Z,4.18
2022-08-04T15:40:27.032Z,4.19
2022-08-04T15:44:25.973Z,4.18
2022-08-04T15:46:43.658Z,4.18
2022-08-04T15:48:28.853Z,4.18
2022-08-04T15:52:32.107Z,4.18
2022-08-04T15:54:33.090Z,4.18
2022-08-04T15:56:33.347Z,4.18
2022-08-04T15:58:35.011Z,4.18
2022-08-04T16:00:36.109Z,4.18
2022-08-04T16:02:37.319Z,4.18
2022-08-04T16:04:38.751Z,4.18
2022-08-04T16:06:39.469Z,4.17
2022-08-04T16:10:42.100Z,4.18
2022-08-04T16:12:53.616Z,4.18
2022-08-04T16:16:45.168Z,4.18
2022-08-04T16:18:46.638Z,4.18
2022-08-04T16:20:47.404Z,4.17
2022-08-04T16:22:48.394Z,4.17
2022-08-04T16:26:53.671Z,4.18
2022-08-04T16:28:50.977Z,4.18
2022-08-04T16:30:52.160Z,4.17
2022-08-04T16:32:53.042Z,4.17
2022-08-04T16:36:55.026Z,4.18
2022-08-04T16:37:38.674Z,4.17
2022-08-04T16:39:49.755Z,4.17
2022-08-04T16:41:41.850Z,4.17
2022-08-04T16:43:43.320Z,4.17
2022-08-04T16:47:45.221Z,4.17
2022-08-04T16:49:49.354Z,4.17
2022-08-04T16:53:54.186Z,4.17
2022-08-04T16:55:50.273Z,4.17
2022-08-04T16:57:51.519Z,4.17
2022-08-04T16:59:53.211Z,4.17
2022-08-04T17:03:57.755Z,4.17
2022-08-04T17:05:57.959Z,4.17
2022-08-04T17:08:27.133Z,4.17
2022-08-04T17:10:01.060Z,4.17
2022-08-04T17:12:01.865Z,4.17
2022-08-04T17:14:05.294Z,4.17
2022-08-04T17:16:04.169Z,4.17
2022-08-04T17:20:06.128Z,4.17
2022-08-04T17:22:06.939Z,4.17
2022-08-04T17:24:13.710Z,4.17
2022-08-04T17:26:09.859Z,4.17
2022-08-04T17:30:11.705Z,4.17
2022-08-04T17:32:12.717Z,4.17
2022-08-04T17:34:15.984Z,4.17
2022-08-04T17:36:15.470Z,4.16
2022-08-04T17:38:16.682Z,4.17
2022-08-04T17:40:22.529Z,4.17
2022-08-04T17:42:19.575Z,4.16
2022-08-04T17:46:28.296Z,4.16
2022-08-04T17:48:24.387Z,4.17
2022-08-04T17:50:24.791Z,4.16
2022-08-04T17:52:37.169Z,4.16
2022-08-04T17:54:29.696Z,4.16
2022-08-04T17:56:29.024Z,4.16
2022-08-04T17:58:30.171Z,4.16
2022-08-04T18:00:33.342Z,4.16
2022-08-04T18:02:34.307Z,4.16
2022-08-04T18:04:34.784Z,4.16
2022-08-04T18:06:36.060Z,4.16
2022-08-04T18:08:40.714Z,4.16
2022-08-04T18:10:44.929Z,4.16
2022-08-04T18:12:41.998Z,4.16
2022-08-04T18:14:41.188Z,4.16
2022-08-04T18:18:48.824Z,4.16
2022-08-04T18:20:45.344Z,4.16
2022-08-04T18:22:46.388Z,4.16
2022-08-04T18:24:55.140Z,4.16
2022-08-04T18:28:50.368Z,4.16
2022-08-04T18:30:55.137Z,4.16
2022-08-04T18:34:54.455Z,4.16
2022-08-04T18:36:55.621Z,4.16
2022-08-04T18:38:58.049Z,4.16
2022-08-04T18:40:56.749Z,4.16
2022-08-04T18:44:59.449Z,4.16
2022-08-04T18:47:19.813Z,4.16
2022-08-04T18:49:01.981Z,4.16
2022-08-04T18:51:11.670Z,4.15
2022-08-04T18:53:04.178Z,4.15
2022-08-04T18:55:05.243Z,4.16
2022-08-04T18:57:25.039Z,4.16
2022-08-04T19:01:13.397Z,4.16
2022-08-04T19:03:10.023Z,4.16
2022-08-04T19:05:11.486Z,4.16
2022-08-04T19:07:23.678Z,4.16
2022-08-04T19:11:16.832Z,4.15
2022-08-04T19:13:18.581Z,4.15
2022-08-04T19:17:52.901Z,4.15
2022-08-04T19:19:20.859Z,4.15
2022-08-04T19:21:58.588Z,4.15
2022-08-04T19:24:12.223Z,4.15
2022-08-04T19:27:26.254Z,4.15
2022-08-04T19:29:37.550Z,4.15
2022-08-04T19:31:34.214Z,4.15
2022-08-04T19:33:55.792Z,4.15
2022-08-04T19:35:31.506Z,4.15
2022-08-04T19:37:56.572Z,4.14
2022-08-04T19:39:35.900Z,4.15
2022-08-04T19:43:36.420Z,4.15
2022-08-04T19:45:41.810Z,4.15
2022-08-04T19:47:59.458Z,4.14
2022-08-04T19:50:03.444Z,4.14
2022-08-04T19:51:44.005Z,4.15
2022-08-04T19:53:42.972Z,4.15
2022-08-04T19:55:43.566Z,4.14
2022-08-04T19:59:48.117Z,4.14
2022-08-04T20:01:46.573Z,4.14
2022-08-04T20:04:08.701Z,4.14
2022-08-04T20:05:54.705Z,4.14
2022-08-04T20:09:53.501Z,4.14
2022-08-04T20:11:53.005Z,4.14
2022-08-04T20:15:55.676Z,4.14
2022-08-04T20:18:07.200Z,4.14
2022-08-04T20:19:57.730Z,4.14
2022-08-04T20:21:58.855Z,4.14
2022-08-04T20:26:01.892Z,4.14
2022-08-04T20:28:02.778Z,4.14
2022-08-04T20:30:07.634Z,4.14
2022-08-04T20:32:05.290Z,4.14
2022-08-04T20:34:06.650Z,4.14
2022-08-04T20:36:08.056Z,4.14
2022-08-04T20:38:08.974Z,4.14
2022-08-04T20:42:12.422Z,4.14
2022-08-04T20:44:15.499Z,4.14
2022-08-04T20:46:17.970Z,4.14
2022-08-04T20:48:16.590Z,4.14
2022-08-04T20:52:20.625Z,4.14
2022-08-04T20:54:26.513Z,4.14
2022-08-04T20:56:30.197Z,4.14
2022-08-04T20:58:27.213Z,4.14
2022-08-04T21:00:26.663Z,4.14
2022-08-04T21:02:26.721Z,4.14
2022-08-04T21:04:28.796Z,4.14
2022-08-04T21:08:30.646Z,4.14
2022-08-04T21:10:32.201Z,4.13
2022-08-04T21:12:33.401Z,4.13
2022-08-04T21:14:34.453Z,4.14
2022-08-04T21:16:54.359Z,4.13
2022-08-04T21:18:36.943Z,4.13
2022-08-04T21:20:42.812Z,4.14
2022-08-04T21:24:40.925Z,4.13
2022-08-04T21:26:42.748Z,4.13
2022-08-04T21:28:42.738Z,4.13
2022-08-04T21:30:52.982Z,4.13
2022-08-04T21:32:45.949Z,4.13
2022-08-04T21:34:48.405Z,4.13
2022-08-04T21:36:48.507Z,4.13
2022-08-04T21:40:50.634Z,4.13
2022-08-04T21:42:53.449Z,4.13
2022-08-04T21:44:53.479Z,4.13
2022-08-04T21:46:55.155Z,4.13
2022-08-04T21:50:57.194Z,4.13
2022-08-04T21:52:58.871Z,4.13
2022-08-04T21:57:03.385Z,4.13
2022-08-04T21:59:07.233Z,4.13
2022-08-04T22:01:06.040Z,4.13
2022-08-04T22:03:05.763Z,4.12
2022-08-04T22:05:07.370Z,4.13
2022-08-04T22:07:07.949Z,4.12
2022-08-04T22:09:14.128Z,4.13
2022-08-04T22:11:10.249Z,4.12
2022-08-04T22:13:11.907Z,4.12
2022-08-04T22:15:22.705Z,4.12
2022-08-04T22:17:18.182Z,4.12
2022-08-04T22:19:15.582Z,4.12
2022-08-04T22:23:19.127Z,4.12
2022-08-04T22:25:19.577Z,4.12
2022-08-04T22:27:20.912Z,4.12
2022-08-04T22:29:22.631Z,4.12
2022-08-04T22:33:54.215Z,4.12
2022-08-04T22:35:31.128Z,4.12
2022-08-04T22:39:29.699Z,4.12
2022-08-04T22:41:34.048Z,4.12
2022-08-04T22:43:34.261Z,4.12
2022-08-04T22:45:44.430Z,4.12
2022-08-04T22:49:35.489Z,4.12
2022-08-04T22:51:36.820Z,4.12
2022-08-04T22:53:38.543Z,4.12
2022-08-04T22:55:57.742Z,4.12
2022-08-04T22:57:42.895Z,4.12
2022-08-04T22:59:43.280Z,4.12
2022-08-04T23:01:45.318Z,4.12
2022-08-04T23:05:48.204Z,4.12
2022-08-04T23:07:49.566Z,4.12
2022-08-04T23:09:49.799Z,4.12
2022-08-04T23:11:50.608Z,4.12
2022-08-04T23:15:52.845Z,4.11
2022-08-04T23:17:53.721Z,4.12
2022-08-04T23:22:01.013Z,4.12
2022-08-04T23:22:42.976Z,4.12
2022-08-04T23:24:42.752Z,4.12
2022-08-04T23:26:44.034Z,4.11
2022-08-04T23:28:45.812Z,4.11
2022-08-04T23:30:46.726Z,4.11
2022-08-04T23:32:48.498Z,4.11
2022-08-04T23:34:49.637Z,4.12
2022-08-04T23:36:51.467Z,4.11
2022-08-04T23:38:53.056Z,4.11
2022-08-04T23:42:56.495Z,4.11
2022-08-04T23:44:58.219Z,4.11
2022-08-04T23:46:59.963Z,4.11
2022-08-04T23:49:01.377Z,4.11
2022-08-04T23:51:02.622Z,4.11
2022-08-04T23:53:04.881Z,4.11
2022-08-04T23:55:07.491Z,4.11
2022-08-04T23:59:17.831Z,4.11
